Time;durP1;ratioP1;P1;durP2;ratioP2;P2;SDS_P1;SDS_P2;PMS_P1;PMS_P2;Temp;Humidity;BMP_temperature;BMP_pressure;BME280_temperature;BME280_humidity;BME280_pressure;Samples;Min_cycle;Max_cycle;Signal;HPM_P1;HPM_P2
2023/12/24 00:02:36;;;;;;;4.78;3.83;;;;;;;2.84;69.16;98863.41;7812146;32;36885;-81
2023/12/24 00:06:52;;;;;;;6.20;4.15;;;;;;;2.70;69.03;98870.16;7812229;32;39207;-81
2023/12/24 00:11:08;;;;;;;6.30;4.30;;;;;;;3.20;67.76;98863.97;7811332;32;39981;-81
2023/12/24 00:15:25;;;;;;;4.75;3.80;;;;;;;2.61;69.84;98857.09;7812001;32;37787;-81
2023/12/24 00:19:41;;;;;;;4.45;3.83;;;;;;;2.92;68.86;98851.44;7811533;32;37523;-81
2023/12/24 00:23:57;;;;;;;3.95;3.55;;;;;;;2.84;68.80;98855.31;7806173;32;38899;-81
2023/12/24 00:28:14;;;;;;;3.42;3.12;;;;;;;2.83;68.93;98861.78;7793705;32;39964;-81
2023/12/24 00:32:30;;;;;;;4.37;3.78;;;;;;;2.54;70.05;98866.41;7793515;32;37751;-81
2023/12/24 00:36:46;;;;;;;3.70;3.40;;;;;;;2.52;70.58;98863.09;7779697;32;36962;-81
2023/12/24 00:41:03;;;;;;;3.50;3.20;;;;;;;2.84;69.79;98859.91;7793312;32;39178;-81
2023/12/24 00:45:19;;;;;;;3.85;3.28;;;;;;;2.81;70.31;98866.56;7793534;32;39920;-81
2023/12/24 00:49:35;;;;;;;3.70;3.40;;;;;;;2.91;69.64;98876.69;7793107;32;37576;-81
2023/12/24 00:53:52;;;;;;;3.83;3.05;;;;;;;2.45;71.00;98884.81;7793056;32;36831;-81
2023/12/24 00:58:08;;;;;;;3.87;3.47;;;;;;;3.11;69.42;98890.50;7793371;32;39076;-81
2023/12/24 01:02:24;;;;;;;4.45;3.42;;;;;;;3.33;68.20;98895.97;7793011;32;40949;-81
2023/12/24 01:06:41;;;;;;;3.50;3.20;;;;;;;2.78;69.80;98902.06;7793182;32;38597;-81
2023/12/24 01:10:57;;;;;;;3.55;3.30;;;;;;;2.92;69.73;98895.31;7792769;32;36955;-81
2023/12/24 01:15:13;;;;;;;3.30;3.00;;;;;;;2.74;71.00;98907.12;7792952;32;38300;-81
2023/12/24 01:19:31;;;;;;;3.12;2.92;;;;;;;2.90;70.01;98918.97;7792937;32;39695;-81
2023/12/24 01:23:47;;;;;;;3.10;2.90;;;;;;;2.97;69.63;98919.63;7792988;32;38556;-81
2023/12/24 01:28:04;;;;;;;2.90;2.70;;;;;;;2.69;71.27;98933.13;7793040;32;36676;-82
2023/12/24 01:32:20;;;;;;;3.00;2.80;;;;;;;2.06;73.55;98935.66;7792679;32;39926;-81
2023/12/24 01:36:39;;;;;;;2.70;2.60;;;;;;;2.23;73.63;98950.00;7791963;32;40833;-83
2023/12/24 01:40:57;;;;;;;2.40;2.30;;;;;;;2.78;75.16;98948.66;7792502;32;37797;-82
2023/12/24 01:45:13;;;;;;;2.33;2.22;;;;;;;2.79;70.84;98957.53;7792824;32;36668;-82
2023/12/24 01:49:30;;;;;;;2.40;2.30;;;;;;;3.10;69.59;98952.69;7792517;32;38879;-82
2023/12/24 01:53:49;;;;;;;2.55;2.40;;;;;;;2.99;70.00;98960.59;7791976;32;40048;-82
2023/12/24 01:58:05;;;;;;;2.62;2.53;;;;;;;2.90;70.22;98961.22;7778709;32;36722;-82
2023/12/24 02:02:22;;;;;;;2.70;2.60;;;;;;;2.58;71.20;98959.03;7778256;32;36876;-82
2023/12/24 02:06:38;;;;;;;3.00;2.70;;;;;;;2.30;71.94;98963.31;7792576;32;39187;-82
2023/12/24 02:10:55;;;;;;;3.47;3.17;;;;;;;2.81;70.10;98956.25;7790968;32;40789;-82
2023/12/24 02:15:11;;;;;;;4.90;3.20;;;;;;;2.69;69.99;98957.34;7792217;32;39257;-83
2023/12/24 02:19:28;;;;;;;4.57;3.55;;;;;;;2.91;69.48;98960.97;7778243;32;37671;-82
2023/12/24 02:23:44;;;;;;;5.22;4.05;;;;;;;3.07;68.62;98961.25;7792124;32;39288;-82
2023/12/24 02:28:07;;;;;;;3.87;3.58;;;;;;;2.98;68.52;98948.19;7792281;32;40020;-83
2023/12/24 02:32:24;;;;;;;4.37;3.53;;;;;;;3.05;68.40;98955.28;7777816;32;37726;-82
2023/12/24 02:36:43;;;;;;;3.42;2.95;;;;;;;3.34;67.27;98950.66;7778355;32;37669;-83
2023/12/24 02:40:59;;;;;;;3.30;3.00;;;;;;;3.36;67.30;98941.28;7766563;32;39229;-82
2023/12/24 02:45:16;;;;;;;3.33;3.00;;;;;;;3.36;66.94;98938.59;7791684;32;40746;-82
2023/12/24 02:49:32;;;;;;;3.33;3.05;;;;;;;3.44;66.88;98944.63;7790885;32;37917;-83
2023/12/24 02:53:49;;;;;;;4.97;3.15;;;;;;;3.53;66.43;98943.16;7791780;32;36915;-83
2023/12/24 02:58:05;;;;;;;31.35;4.32;;;;;;;3.54;66.48;98940.19;7791788;32;39928;-83
2023/12/24 03:02:22;;;;;;;8.38;3.50;;;;;;;3.69;65.92;98928.00;7790967;32;39921;-82
2023/12/24 03:06:38;;;;;;;3.45;2.87;;;;;;;3.55;66.21;98932.94;7791251;32;37814;-82
2023/12/24 03:10:54;;;;;;;3.35;3.08;;;;;;;3.51;66.45;98934.50;7791593;32;35167;-83
2023/12/24 03:15:11;;;;;;;4.90;3.60;;;;;;;3.56;66.45;98929.19;7790909;32;39210;-82
2023/12/24 03:19:27;;;;;;;3.35;3.03;;;;;;;3.56;66.42;98926.47;7790567;32;40573;-82
2023/12/24 03:23:44;;;;;;;3.90;3.40;;;;;;;3.45;66.83;98943.53;7791012;32;38523;-82
2023/12/24 03:28:00;;;;;;;3.67;3.33;;;;;;;3.55;67.21;98958.03;7791027;32;37757;-82
2023/12/24 03:32:16;;;;;;;4.20;3.37;;;;;;;3.65;67.07;98959.22;7790690;32;39935;-82
2023/12/24 03:36:33;;;;;;;4.35;3.28;;;;;;;3.81;66.35;98954.88;7790714;32;39943;-83
2023/12/24 03:40:49;;;;;;;3.30;3.10;;;;;;;3.79;66.61;98951.59;7790033;32;37846;-82
2023/12/24 03:45:06;;;;;;;3.40;3.10;;;;;;;4.01;66.01;98943.56;7790605;32;36633;-82
2023/12/24 03:49:22;;;;;;;3.42;3.10;;;;;;;3.90;66.21;98945.31;7790052;32;39935;-82
2023/12/24 03:53:39;;;;;;;4.43;3.45;;;;;;;3.80;66.79;98953.25;7790418;32;39930;-82
2023/12/24 03:57:55;;;;;;;3.22;2.92;;;;;;;4.06;66.12;98940.94;7790186;32;38434;-82
2023/12/24 04:02:11;;;;;;;4.10;3.30;;;;;;;4.15;65.78;98947.50;7793623;32;36712;-82
2023/12/24 04:06:28;;;;;;;3.65;3.35;;;;;;;4.27;65.55;98950.91;7793994;32;39163;-81
2023/12/24 04:10:45;;;;;;;3.92;3.25;;;;;;;4.23;65.87;98936.28;7793120;32;40795;-81
2023/12/24 04:15:01;;;;;;;3.33;3.03;;;;;;;4.11;66.03;98931.00;7793760;32;37816;-82
2023/12/24 04:19:18;;;;;;;5.20;3.30;;;;;;;4.13;66.06;98930.75;7793630;32;37434;-82
2023/12/24 04:23:34;;;;;;;3.53;3.12;;;;;;;4.26;65.79;98929.56;7793736;32;39264;-82
2023/12/24 04:27:51;;;;;;;3.40;3.10;;;;;;;4.04;66.47;98932.28;7793710;32;40887;-82
2023/12/24 04:32:07;;;;;;;3.22;2.92;;;;;;;4.18;66.14;98930.03;7793215;32;38558;-82
2023/12/24 04:36:23;;;;;;;4.12;3.00;;;;;;;4.39;65.44;98926.50;7793658;32;36865;-83
2023/12/24 04:40:40;;;;;;;2.70;2.50;;;;;;;4.31;66.01;98927.75;7793315;32;39055;-82
2023/12/24 04:44:56;;;;;;;2.80;2.60;;;;;;;4.33;65.59;98930.22;7793504;32;39882;-81
2023/12/24 04:49:12;;;;;;;2.80;2.60;;;;;;;4.34;65.92;98923.72;7793180;32;37888;-82
2023/12/24 04:53:28;;;;;;;2.60;2.40;;;;;;;4.43;65.99;98924.94;7792962;32;36975;-82
2023/12/24 04:57:45;;;;;;;2.35;2.20;;;;;;;4.32;66.51;98928.56;7793391;32;39870;-81
2023/12/24 05:02:01;;;;;;;2.92;2.70;;;;;;;4.39;67.07;98931.88;7793298;32;40104;-82
2023/12/24 05:06:17;;;;;;;2.70;2.50;;;;;;;4.57;66.38;98932.63;7793202;32;38512;-82
2023/12/24 05:10:34;;;;;;;2.75;2.55;;;;;;;4.47;66.68;98936.84;7792913;32;36836;-82
2023/12/24 05:14:50;;;;;;;2.92;2.55;;;;;;;4.31;67.51;98937.72;7792989;32;39274;-82
2023/12/24 05:19:07;;;;;;;6.07;3.00;;;;;;;4.70;66.45;98948.44;7792727;32;39972;-82
2023/12/24 05:23:25;;;;;;;2.90;2.70;;;;;;;4.81;66.09;98935.84;7793047;32;37939;-82
2023/12/24 05:27:41;;;;;;;3.10;2.80;;;;;;;4.62;66.90;98943.47;7793158;32;36243;-83
2023/12/24 05:31:58;;;;;;;3.53;2.92;;;;;;;4.82;66.15;98943.69;7792757;32;38932;-82
2023/12/24 05:36:14;;;;;;;4.87;3.50;;;;;;;4.82;66.30;98937.47;7792761;32;40882;-81
2023/12/24 05:40:31;;;;;;;3.33;3.00;;;;;;;4.56;66.91;98939.09;7791544;32;37762;-82
2023/12/24 05:44:47;;;;;;;3.05;2.75;;;;;;;4.84;66.41;98929.94;7792768;32;37697;-82
2023/12/24 05:49:03;;;;;;;3.30;2.70;;;;;;;4.52;67.48;98938.78;7792587;32;39796;-82
2023/12/24 05:53:20;;;;;;;3.30;3.00;;;;;;;4.71;67.75;98931.16;7792691;32;39720;-82
2023/12/24 05:57:36;;;;;;;3.67;2.80;;;;;;;4.57;68.72;98946.12;7792706;32;37860;-82
2023/12/24 06:01:52;;;;;;;3.00;2.80;;;;;;;4.55;68.87;98948.25;7791908;32;37702;-83
2023/12/24 06:06:09;;;;;;;3.33;3.03;;;;;;;4.76;68.12;98939.31;7792347;32;39148;-83
2023/12/24 06:10:25;;;;;;;3.33;3.03;;;;;;;4.72;68.74;98948.97;7791957;32;39823;-82
2023/12/24 06:14:42;;;;;;;4.18;3.25;;;;;;;4.91;68.02;98935.94;7792321;32;37787;-82
2023/12/24 06:18:58;;;;;;;3.75;3.10;;;;;;;5.08;67.70;98942.03;7792432;32;36890;-83
2023/12/24 06:23:15;;;;;;;4.75;3.20;;;;;;;4.93;68.49;98938.41;7791556;32;39834;-82
2023/12/24 06:27:31;;;;;;;4.72;3.10;;;;;;;4.98;69.01;98943.84;7792007;32;40877;-81
2023/12/24 06:31:47;;;;;;;2.95;2.70;;;;;;;4.75;71.08;98943.09;7791856;32;37601;-82
2023/12/24 06:36:04;;;;;;;2.80;2.60;;;;;;;4.25;74.86;98960.34;7792050;32;36925;-82
2023/12/24 06:40:20;;;;;;;2.60;2.40;;;;;;;4.32;75.97;98960.94;7782756;32;39324;-82
2023/12/24 06:44:36;;;;;;;2.78;2.58;;;;;;;4.92;73.96;98961.09;7791936;32;40738;-82
2023/12/24 06:48:53;;;;;;;2.85;2.65;;;;;;;4.79;74.39;98979.31;7791930;32;37817;-82
2023/12/24 06:53:09;;;;;;;4.10;3.08;;;;;;;5.14;72.41;98971.81;7791370;32;37800;-82
2023/12/24 06:57:25;;;;;;;2.45;2.22;;;;;;;5.38;71.01;98972.28;7791179;32;39801;-82
2023/12/24 07:01:42;;;;;;;3.90;2.40;;;;;;;5.52;70.70;98970.81;7791429;32;40759;-82
2023/12/24 07:05:59;;;;;;;3.30;2.80;;;;;;;5.49;71.07;98963.22;7791520;32;38530;-81
2023/12/24 07:10:15;;;;;;;2.75;2.55;;;;;;;5.10;71.89;98974.22;7791205;32;36749;-83
2023/12/24 07:14:32;;;;;;;3.58;2.90;;;;;;;5.69;69.82;98975.25;7791394;32;39948;-83
2023/12/24 07:18:48;;;;;;;4.80;4.07;;;;;;;5.65;70.20;98983.88;7791043;32;39991;-83
2023/12/24 07:23:05;;;;;;;4.80;3.60;;;;;;;5.25;71.30;98979.75;7789653;32;38577;-82
2023/12/24 07:27:21;;;;;;;5.93;2.87;;;;;;;5.06;71.42;98975.81;7791102;32;37897;-82
2023/12/24 07:31:37;;;;;;;3.33;2.67;;;;;;;5.38;69.90;98981.25;7790015;32;38942;-82
2023/12/24 07:35:54;;;;;;;2.72;2.45;;;;;;;5.49;69.85;98986.75;7792726;32;40775;-83
2023/12/24 07:40:10;;;;;;;13.57;7.82;;;;;;;5.40;69.96;98987.19;7794286;32;37830;-78
2023/12/24 07:44:27;;;;;;;4.55;2.85;;;;;;;5.21;70.71;98994.87;7794183;32;37719;-81
2023/12/24 07:48:43;;;;;;;2.67;2.47;;;;;;;5.52;69.69;98987.03;7793604;32;39139;-78
2023/12/24 07:52:59;;;;;;;3.15;2.50;;;;;;;5.59;69.01;98997.63;7793777;32;40802;-77
2023/12/24 07:57:16;;;;;;;2.60;2.37;;;;;;;5.37;69.80;99003.13;7793464;32;37606;-83
2023/12/24 08:01:32;;;;;;;3.03;2.50;;;;;;;5.39;69.65;98990.16;7793545;32;36903;-82
2023/12/24 08:05:48;;;;;;;2.83;2.40;;;;;;;5.33;69.80;99001.97;7792891;32;40008;-75
2023/12/24 08:10:06;;;;;;;4.28;2.67;;;;;;;5.50;69.39;99010.78;7793640;32;39857;-82
2023/12/24 08:14:22;;;;;;;3.25;2.55;;;;;;;5.74;68.74;99007.72;7738331;32;37876;-83
2023/12/24 08:18:38;;;;;;;2.33;2.17;;;;;;;5.55;68.90;99016.22;7739916;32;37764;-83
2023/12/24 08:22:55;;;;;;;2.40;2.20;;;;;;;5.73;68.00;99014.25;7739567;32;37645;-82
2023/12/24 08:27:12;;;;;;;2.90;2.20;;;;;;;5.87;67.51;99026.22;7739621;32;40852;-83
2023/12/24 08:31:28;;;;;;;5.28;2.30;;;;;;;5.68;68.11;99023.13;7739563;32;37883;-83
2023/12/24 08:35:44;;;;;;;2.60;2.40;;;;;;;5.96;67.22;99032.81;7745802;32;37143;-83
2023/12/24 08:40:01;;;;;;;2.60;2.28;;;;;;;6.22;66.28;99037.59;7766415;32;39240;-83
2023/12/24 08:44:18;;;;;;;10.15;3.25;;;;;;;6.28;65.93;99042.78;7756179;32;39937;-84
2023/12/24 08:48:34;;;;;;;3.53;2.37;;;;;;;6.57;65.39;99053.19;7748527;32;38728;-83
2023/12/24 08:52:50;;;;;;;3.25;2.53;;;;;;;6.38;65.36;99067.19;7748481;32;37236;-83
2023/12/24 08:57:08;;;;;;;2.85;2.40;;;;;;;6.25;65.47;99075.78;7741372;32;39965;-83
2023/12/24 09:01:24;;;;;;;2.33;2.12;;;;;;;6.54;64.44;99078.13;7743253;32;39924;-84
2023/12/24 09:05:40;;;;;;;4.22;2.50;;;;;;;6.63;64.57;99073.81;7743565;32;38681;-84
2023/12/24 09:09:56;;;;;;;3.70;2.87;;;;;;;6.06;66.28;99085.41;7749547;32;36471;-83
2023/12/24 09:14:13;;;;;;;4.85;3.08;;;;;;;6.83;64.15;99072.28;7784623;32;39982;-88
2023/12/24 09:18:29;;;;;;;2.97;2.42;;;;;;;6.79;63.91;99065.78;7792011;32;39852;-85
2023/12/24 09:22:45;;;;;;;7.80;3.10;;;;;;;6.72;63.71;99076.84;7792330;32;37662;-86
2023/12/24 09:27:02;;;;;;;4.53;2.92;;;;;;;6.73;63.87;99083.91;7792959;32;36826;-85
2023/12/24 09:31:18;;;;;;;6.28;3.35;;;;;;;7.28;62.71;99079.75;7793002;32;39976;-85
2023/12/24 09:35:35;;;;;;;4.45;2.80;;;;;;;7.45;62.04;99078.69;7792731;32;39951;-85
2023/12/24 09:39:52;;;;;;;3.37;2.70;;;;;;;7.29;62.26;99086.00;7792669;32;38520;-86
2023/12/24 09:44:08;;;;;;;6.28;3.40;;;;;;;7.04;62.74;99086.75;7792980;32;36915;-87
2023/12/24 09:48:24;;;;;;;5.07;2.75;;;;;;;6.87;63.12;99087.75;7778891;32;40256;-88
2023/12/24 09:52:42;;;;;;;2.87;2.20;;;;;;;7.07;61.87;99084.31;7792533;32;40920;-86
2023/12/24 09:56:59;;;;;;;4.12;2.62;;;;;;;7.14;61.62;99089.50;7791530;32;38652;-86
2023/12/24 10:01:15;;;;;;;2.10;2.00;;;;;;;6.91;62.27;99094.25;7792481;32;37684;-87
2023/12/24 10:05:32;;;;;;;2.40;2.20;;;;;;;6.60;62.79;99093.31;7791816;32;38868;-87
2023/12/24 10:09:49;;;;;;;4.20;3.05;;;;;;;6.90;61.56;99089.94;7791889;32;41006;-87
2023/12/24 10:14:06;;;;;;;5.23;2.97;;;;;;;6.97;61.65;99089.69;7791773;32;38384;-87
2023/12/24 10:18:22;;;;;;;9.10;4.50;;;;;;;7.14;61.25;99097.62;7792115;32;37096;-86
2023/12/24 10:22:39;;;;;;;5.37;3.47;;;;;;;6.60;62.79;99089.78;7791634;32;39926;-84
2023/12/24 10:27:06;;;;;;;12.90;6.28;;;;;;;6.66;61.65;99094.16;7777580;32;39850;-84
2023/12/24 10:31:23;;;;;;;5.53;3.20;;;;;;;7.10;61.25;99083.75;7792095;32;37689;-83
2023/12/24 10:35:40;;;;;;;8.68;4.10;;;;;;;6.82;62.04;99092.34;7792170;32;36737;-84
2023/12/24 10:40:10;;;;;;;4.30;2.50;;;;;;;7.15;60.95;99091.91;7790718;32;39263;-84
2023/12/24 10:44:26;;;;;;;5.72;3.42;;;;;;;6.64;62.43;99109.84;7791266;32;40843;-84
2023/12/24 10:48:43;;;;;;;2.85;2.55;;;;;;;6.54;63.11;99127.69;7791739;32;37830;-82
2023/12/24 10:52:59;;;;;;;4.00;2.83;;;;;;;6.54;66.37;99110.63;7777889;32;37659;-83
2023/12/24 10:57:23;;;;;;;2.33;2.12;;;;;;;6.13;69.71;99110.34;7791371;32;40837;-84
2023/12/24 11:01:40;;;;;;;4.93;2.83;;;;;;;6.26;70.08;99106.34;7790893;32;40883;-84
2023/12/24 11:05:56;;;;;;;2.33;2.12;;;;;;;6.48;69.92;99092.69;7775988;32;37695;-84
2023/12/24 11:10:37;;;;;;;2.95;2.45;;;;;;;6.16;70.69;99088.19;7789881;32;36819;-84
2023/12/24 11:14:54;;;;;;;4.65;2.47;;;;;;;6.32;69.48;99075.56;7790936;32;39212;-86
2023/12/24 11:19:24;;;;;;;5.47;2.97;;;;;;;6.21;70.15;99080.09;7775926;32;40778;-84
2023/12/24 11:23:42;;;;;;;3.10;2.53;;;;;;;6.71;68.34;99076.03;7789378;32;38640;-83
2023/12/24 11:27:58;;;;;;;6.45;3.45;;;;;;;6.77;67.38;99044.34;7789087;32;37875;-84
2023/12/24 11:32:27;;;;;;;8.40;3.90;;;;;;;6.74;67.68;99026.75;7787008;32;39292;-84
2023/12/24 11:37:01;;;;;;;14.82;7.03;;;;;;;7.25;65.88;99022.56;7788957;32;40606;-85
2023/12/24 11:41:21;;;;;;;;;;;;;;;6.98;67.28;99010.00;7775713;32;38004;-82
2023/12/24 11:45:37;;;;;;;4.03;2.92;;;;;;;7.11;67.08;99006.00;7788114;32;37630;-83
2023/12/24 11:49:53;;;;;;;5.75;2.40;;;;;;;7.41;66.15;98998.97;7768082;32;39750;-84
2023/12/24 11:54:10;;;;;;;3.08;2.20;;;;;;;7.56;65.17;98990.03;7771788;32;39414;-85
2023/12/24 11:58:27;;;;;;;8.25;3.85;;;;;;;7.39;65.24;98987.59;7786913;32;37532;-84
2023/12/24 12:03:09;;;;;;;5.12;1.98;;;;;;;7.58;64.99;98988.66;7788086;32;37070;-85
2023/12/24 12:07:25;;;;;;;6.20;3.10;;;;;;;8.10;62.80;98992.12;7776513;32;39393;-84
2023/12/24 12:11:41;;;;;;;2.65;1.98;;;;;;;8.07;61.92;99007.09;7786507;32;40984;-85
2023/12/24 12:15:57;;;;;;;4.37;2.90;;;;;;;8.32;61.08;99010.81;7787890;32;37427;-85
2023/12/24 12:20:14;;;;;;;5.50;2.90;;;;;;;8.14;61.54;98998.66;7782974;32;38448;-84
2023/12/24 12:24:31;;;;;;;8.52;3.90;;;;;;;8.17;61.37;99013.56;7790471;32;39246;-84
2023/12/24 12:28:47;;;;;;;8.05;3.53;;;;;;;8.43;60.47;99011.63;7793168;32;39905;-85
2023/12/24 12:33:04;;;;;;;5.18;2.62;;;;;;;8.58;59.55;99013.50;7792696;32;37554;-84
2023/12/24 12:37:21;;;;;;;6.82;3.30;;;;;;;8.53;59.66;99011.59;7793533;32;37594;-84
2023/12/24 12:41:37;;;;;;;8.82;3.28;;;;;;;8.62;59.13;99007.25;7793115;32;39945;-84
2023/12/24 12:45:53;;;;;;;7.10;3.17;;;;;;;8.34;60.45;99005.94;7793409;32;40054;-84
2023/12/24 12:50:10;;;;;;;5.10;2.72;;;;;;;8.61;58.58;99021.09;7793482;32;38591;-85
2023/12/24 12:54:26;;;;;;;2.47;2.10;;;;;;;8.53;58.78;99027.91;7792688;32;37726;-83
2023/12/24 12:58:52;;;;;;;12.52;4.22;;;;;;;8.31;58.79;99019.25;7792487;32;39298;-85
2023/12/24 13:03:08;;;;;;;10.38;3.90;;;;;;;8.21;58.93;99018.19;7792935;32;39991;-85
2023/12/24 13:07:30;;;;;;;7.25;3.45;;;;;;;8.13;59.13;99020.66;7792493;32;37896;-85
2023/12/24 13:11:47;;;;;;;6.37;3.20;;;;;;;8.56;57.60;99013.78;7791807;32;37751;-83
2023/12/24 13:16:08;;;;;;;6.95;3.65;;;;;;;9.03;56.43;99017.09;7793178;32;39709;-86
2023/12/24 13:20:27;;;;;;;47.53;16.65;;;;;;;9.16;56.28;99010.22;7792340;32;40813;-86
2023/12/24 13:24:43;;;;;;;7.90;4.07;;;;;;;8.89;56.54;99013.38;7792882;32;36764;-86
2023/12/24 13:28:59;;;;;;;6.45;2.95;;;;;;;8.85;56.81;98999.53;7792303;32;36737;-87
2023/12/24 13:33:16;;;;;;;9.07;4.30;;;;;;;8.98;56.61;99006.25;7792786;32;39765;-88
2023/12/24 13:37:33;;;;;;;8.52;3.37;;;;;;;9.34;55.43;99003.31;7792321;32;40785;-85
2023/12/24 13:41:49;;;;;;;6.55;3.00;;;;;;;9.58;54.98;98997.94;7792612;32;38574;-85
2023/12/24 13:46:06;;;;;;;5.03;2.83;;;;;;;9.59;54.85;99000.38;7792764;32;36954;-85
2023/12/24 13:50:22;;;;;;;4.45;2.60;;;;;;;9.51;54.71;98997.47;7792424;32;40292;-84
2023/12/24 13:54:39;;;;;;;5.87;3.25;;;;;;;9.24;55.63;98997.94;7792363;32;40084;-84
2023/12/24 13:58:55;;;;;;;3.90;2.70;;;;;;;9.40;55.17;98989.38;7791553;32;37923;-86
2023/12/24 14:03:11;;;;;;;3.55;2.67;;;;;;;9.48;55.05;98996.13;7792530;32;37506;-86
2023/12/24 14:07:28;;;;;;;5.37;2.92;;;;;;;9.38;55.26;98994.31;7792541;32;39178;-86
2023/12/24 14:11:47;;;;;;;10.57;3.60;;;;;;;9.15;56.06;99001.25;7792241;32;40795;-85
2023/12/24 14:16:03;;;;;;;6.32;3.37;;;;;;;9.42;55.10;99004.59;7788387;32;37699;-86
2023/12/24 14:20:19;;;;;;;5.85;3.10;;;;;;;9.14;55.76;99004.22;7788592;32;36587;-87
2023/12/24 14:24:36;;;;;;;7.72;3.45;;;;;;;9.23;55.65;99004.44;7777398;32;40023;-86
2023/12/24 14:28:52;;;;;;;8.57;3.50;;;;;;;8.93;56.45;99017.13;7791491;32;39972;-88
2023/12/24 14:33:08;;;;;;;5.50;3.28;;;;;;;9.24;55.55;99023.22;7792404;32;37880;-87
2023/12/24 14:37:25;;;;;;;6.20;3.20;;;;;;;9.15;55.99;99027.63;7791716;32;37676;-86
2023/12/24 14:41:41;;;;;;;5.15;3.00;;;;;;;9.03;56.01;99020.59;7791460;32;40386;-85
2023/12/24 14:45:59;;;;;;;8.60;3.78;;;;;;;8.91;56.39;99019.31;7790594;32;40562;-86
2023/12/24 14:50:15;;;;;;;8.55;3.95;;;;;;;9.20;55.79;99024.87;7791169;32;38621;-86
2023/12/24 14:54:32;;;;;;;6.22;4.10;;;;;;;9.02;56.27;99027.16;7790619;32;37670;-86
2023/12/24 14:58:48;;;;;;;8.68;4.45;;;;;;;9.10;56.04;99027.66;7777695;32;39994;-85
2023/12/24 15:03:06;;;;;;;6.87;3.60;;;;;;;9.14;55.69;99020.56;7791774;32;39984;-85
2023/12/24 15:07:26;;;;;;;7.97;3.67;;;;;;;9.11;56.02;99032.00;7790818;32;37772;-86
2023/12/24 15:11:43;;;;;;;6.87;3.53;;;;;;;9.41;55.35;99022.84;7791463;32;37008;-82
2023/12/24 15:15:59;;;;;;;6.57;4.05;;;;;;;9.38;55.57;99031.56;7791108;32;39198;-83
2023/12/24 15:20:17;;;;;;;13.25;6.55;;;;;;;9.37;55.71;99035.38;7791074;32;39669;-83
2023/12/24 15:24:33;;;;;;;9.43;4.28;;;;;;;9.15;56.32;99039.31;7789676;32;37106;-83
2023/12/24 15:28:50;;;;;;;7.45;4.03;;;;;;;8.84;57.33;99036.75;7790877;32;36879;-85
2023/12/24 15:33:07;;;;;;;7.53;3.72;;;;;;;9.21;56.19;99049.06;7790512;32;39284;-86
2023/12/24 15:37:23;;;;;;;6.65;3.85;;;;;;;8.88;57.26;99064.19;7790848;32;40698;-86
2023/12/24 15:41:40;;;;;;;9.75;4.80;;;;;;;8.90;57.46;99070.16;7788913;32;37461;-81
2023/12/24 15:45:56;;;;;;;6.97;4.07;;;;;;;9.29;56.46;99066.69;7788967;32;37077;-86
2023/12/24 15:50:12;;;;;;;6.22;2.97;;;;;;;8.56;59.12;99065.38;7786743;32;40043;-87
2023/12/24 15:54:29;;;;;;;4.20;2.60;;;;;;;8.28;61.41;99064.88;7772473;32;39909;-85
2023/12/24 15:58:45;;;;;;;4.03;2.78;;;;;;;8.23;62.45;99072.22;7775212;32;38551;-87
2023/12/24 16:03:02;;;;;;;4.75;2.70;;;;;;;8.00;63.81;99071.72;7791974;32;36920;-84
2023/12/24 16:07:18;;;;;;;3.65;2.28;;;;;;;8.12;64.13;99067.88;7792212;32;39207;-85
2023/12/24 16:11:34;;;;;;;2.85;2.25;;;;;;;7.98;65.50;99067.62;7793084;32;40018;-83
2023/12/24 16:15:51;;;;;;;2.40;2.20;;;;;;;8.50;64.23;99073.81;7792692;32;37793;-85
2023/12/24 16:20:08;;;;;;;3.55;2.60;;;;;;;8.33;64.93;99082.25;7793028;32;37017;-84
2023/12/24 16:24:25;;;;;;;2.62;2.20;;;;;;;8.33;65.52;99076.81;7793140;32;39370;-83
2023/12/24 16:28:42;;;;;;;2.53;2.20;;;;;;;8.42;65.15;99069.75;7779535;32;40647;-84
2023/12/24 16:32:58;;;;;;;4.47;2.45;;;;;;;8.26;66.31;99061.63;7792543;32;37744;-85
2023/12/24 16:37:14;;;;;;;5.37;3.60;;;;;;;8.30;66.65;99069.22;7791960;32;36589;-86
2023/12/24 16:41:31;;;;;;;7.28;4.00;;;;;;;8.87;65.90;99068.00;7792270;32;39341;-84
2023/12/24 16:45:47;;;;;;;7.55;4.05;;;;;;;8.96;64.60;99069.03;7791334;32;40830;-85
2023/12/24 16:50:04;;;;;;;8.65;3.85;;;;;;;9.12;63.36;99069.78;7791396;32;37647;-84
2023/12/24 16:54:20;;;;;;;7.68;4.00;;;;;;;8.90;63.69;99070.16;7792337;32;37753;-84
2023/12/24 16:58:37;;;;;;;10.27;3.95;;;;;;;9.07;63.11;99060.84;7792959;32;39861;-83
2023/12/24 17:02:53;;;;;;;4.40;2.85;;;;;;;8.83;64.42;99069.66;7791651;32;40701;-83
2023/12/24 17:07:10;;;;;;;6.87;3.20;;;;;;;7.90;69.17;99083.38;7793006;32;37817;-83
2023/12/24 17:11:26;;;;;;;5.35;3.50;;;;;;;8.31;68.24;99079.00;7792419;32;37636;-83
2023/12/24 17:15:46;;;;;;;8.88;4.60;;;;;;;8.79;66.42;99084.88;7793158;32;39926;-83
2023/12/24 17:20:04;;;;;;;7.10;3.95;;;;;;;9.21;64.21;99073.56;7793109;32;40835;-83
2023/12/24 17:24:20;;;;;;;7.50;4.40;;;;;;;9.16;63.88;99067.34;7792585;32;38503;-82
2023/12/24 17:28:37;;;;;;;7.22;3.80;;;;;;;9.25;64.77;99079.25;7792523;32;36676;-82
2023/12/24 17:32:54;;;;;;;10.32;4.28;;;;;;;9.76;68.96;99070.75;7792806;32;39151;-82
2023/12/24 17:37:11;;;;;;;8.45;4.50;;;;;;;9.48;65.38;99077.75;7792333;32;40027;-81
2023/12/24 17:41:27;;;;;;;5.30;3.40;;;;;;;8.72;67.65;99078.94;7792947;32;37673;-81
2023/12/24 17:45:44;;;;;;;5.93;3.40;;;;;;;9.45;65.31;99080.22;7792633;32;36630;-82
2023/12/24 17:50:00;;;;;;;6.82;4.40;;;;;;;9.33;65.41;99078.66;7792343;32;39147;-81
2023/12/24 17:54:16;;;;;;;5.53;2.62;;;;;;;9.46;65.31;99070.97;7792669;32;40841;-80
2023/12/24 17:58:33;;;;;;;5.45;2.97;;;;;;;9.52;65.46;99072.53;7791876;32;37855;-80
2023/12/24 18:02:49;;;;;;;3.55;2.37;;;;;;;9.29;66.93;99055.81;7792661;32;37822;-84
2023/12/24 18:07:06;;;;;;;4.15;2.80;;;;;;;9.33;66.63;99048.75;7791741;32;39709;-84
2023/12/24 18:11:22;;;;;;;4.43;2.62;;;;;;;9.15;67.62;99049.38;7778592;32;40928;-83
2023/12/24 18:15:40;;;;;;;3.58;2.45;;;;;;;9.25;67.60;99065.66;7792099;32;38903;-84
2023/12/24 18:19:57;;;;;;;4.28;2.40;;;;;;;9.13;67.86;99067.88;7791553;32;35861;-85
2023/12/24 18:24:13;;;;;;;5.43;2.83;;;;;;;9.47;67.06;99061.69;7792398;32;40780;-85
2023/12/24 18:28:29;;;;;;;5.20;2.90;;;;;;;8.99;68.00;99057.63;7792245;32;40484;-86
2023/12/24 18:32:46;;;;;;;4.65;2.70;;;;;;;9.06;67.87;99061.94;7790939;32;39339;-85
2023/12/24 18:37:03;;;;;;;3.95;2.60;;;;;;;9.24;67.86;99053.12;7791797;32;36972;-86
2023/12/24 18:41:23;;;;;;;3.87;2.70;;;;;;;9.21;67.54;99049.06;7792131;32;39333;-85
2023/12/24 18:45:39;;;;;;;4.32;2.83;;;;;;;9.50;66.68;99061.13;7792046;32;40829;-84
2023/12/24 18:49:55;;;;;;;4.50;3.17;;;;;;;9.28;67.15;99054.22;7791209;32;37789;-85
2023/12/24 18:54:11;;;;;;;5.50;3.20;;;;;;;9.56;65.94;99060.00;7791565;32;37313;-85
2023/12/24 18:58:28;;;;;;;5.30;3.00;;;;;;;9.46;65.90;99060.88;7791739;32;39739;-85
2023/12/24 19:02:47;;;;;;;6.35;3.72;;;;;;;9.28;66.71;99065.09;7791379;32;39887;-86
2023/12/24 19:07:05;;;;;;;11.10;5.90;;;;;;;9.29;66.06;99055.00;7791540;32;37777;-86
2023/12/24 19:11:24;;;;;;;5.40;3.25;;;;;;;9.24;66.70;99053.12;7791284;32;35876;-85
2023/12/24 19:15:40;;;;;;;5.78;3.60;;;;;;;9.23;66.75;99045.25;7791516;32;39327;-85
2023/12/24 19:19:57;;;;;;;6.53;4.07;;;;;;;9.07;67.36;99049.97;7791365;32;41045;-86
2023/12/24 19:24:15;;;;;;;4.25;3.00;;;;;;;8.90;68.71;99059.31;7791157;32;38703;-85
2023/12/24 19:28:31;;;;;;;8.55;5.37;;;;;;;9.38;66.98;99056.87;7791306;32;36964;-85
2023/12/24 19:32:47;;;;;;;8.23;3.53;;;;;;;9.35;67.58;99059.34;7794467;32;39878;-85
2023/12/24 19:37:04;;;;;;;6.25;3.15;;;;;;;9.05;68.96;99057.59;7794267;32;39597;-85
2023/12/24 19:41:20;;;;;;;5.15;3.00;;;;;;;8.78;70.69;99066.97;7793666;32;38605;-86
2023/12/24 19:45:36;;;;;;;6.07;2.87;;;;;;;8.83;70.25;99069.66;7794067;32;37706;-85
2023/12/24 19:49:53;;;;;;;4.03;2.60;;;;;;;8.58;70.98;99065.13;7794460;32;39270;-85
2023/12/24 19:54:09;;;;;;;5.20;2.80;;;;;;;9.04;70.56;99064.94;7794191;32;40900;-86
2023/12/24 19:58:26;;;;;;;4.50;2.87;;;;;;;9.38;69.31;99058.75;7794050;32;37441;-85
2023/12/24 20:02:45;;;;;;;8.13;4.45;;;;;;;9.25;70.04;99043.88;7794109;32;36924;-87
2023/12/24 20:07:01;;;;;;;6.22;3.42;;;;;;;9.19;69.81;99048.56;7794115;32;39854;-87
2023/12/24 20:11:18;;;;;;;5.47;2.95;;;;;;;9.21;70.26;99042.84;7793837;32;40783;-87
2023/12/24 20:15:34;;;;;;;7.93;4.05;;;;;;;8.96;71.16;99041.06;7793807;32;37872;-88
2023/12/24 20:19:51;;;;;;;8.10;4.28;;;;;;;8.32;73.71;99042.59;7779858;32;37683;-88
2023/12/24 20:24:07;;;;;;;6.65;3.92;;;;;;;8.53;74.02;99041.47;7779771;32;39303;-85